Terminal Aerodrome Forecast
Issued by NWS

Home | Current Version | Previous Version | Text Only | Print | Product List | Glossary Off
Versions: 1 2 3 4 5 6 7 8 9 10 11 12 13 14 15 16 17 18 19

000
FTUS43 KGRB 141100
TAFRHI
TAF
KRHI 141120Z 1412/1512 34012G22KT 1 1/2SM -SN BR OVC015
     FM141300 33015G23KT 6SM -SN SCT009 BKN015
      TEMPO 1413/1414 3SM -SN BKN012
     FM141800 33013G23KT P6SM BKN030
     FM142300 32010KT P6SM SCT045=

USA.gov is the U.S. government's official web portal to all federal, state and local government web resources and services.